Hovedside
METAR-TAF:

METAR-TAF

Lufthavner :

Antonio B. Won Pat internasjonale lufthavn

Hagåtña, Guam, USA

breddegrad: 13-29N, lengdegrad: 144-48E, høyde over havet: 91 m

Gjeldene værobservasjon

Denne rapporten ble laget for 27 minutter siden, klokken 10:54 UTC
Flau vind
Temperatur 27°C
Luftfuktighet 84%
Trykk 1011 hPa
Sikt: 16.1 km
Skyfri himmel

METAR: PGUM 201054Z 00000KT 10SM CLR 27/24 A2985 RMK AO2 SLP100 T02720244

Tid: 21:21 (11:21 UTC)

Varsel

Denne rapporten ble laget for 5 timer og 57 minutter siden, klokken 05:24 UTC
Varsel gyldig fra 20. klokken 06 UTC til 21. klokken 12 UTC
Vind 6 kt fra skiftende retning
Sikt: 10 km
Få skyer i en høyde av 2000 ft
Spredte skyer i en høyde av 2700 ft
Overskyet i en høyde av 8000 ft
regnbyger i nærheten
Midlertidig
fra 20. klokken 06 UTC til 20. klokken 09 UTC
Sikt: 6.4 km
Brutte skyer i en høyde av 2000 ft
Overskyet i en høyde av 5000 ft
regnbyger

TAF: PGUM 200524Z 2006/2112 VRB06KT P6SM VCSH FEW020 SCT027 OVC080 TEMPO 2006/2009 4SM SHRA BKN020 OVC050

Værobservasjoner og værvarsel for over 4000 flyplasser (METAR- og TAF-rapporter).

Tilgjengelige stasjoner er representert av de røde og gule prikkene på kartet.

Hold musepekeren over prikken for å se navnet på stasjonen.

Klikk så for å se værobservasjoner og -varsler.

For å forandre kartet kan du klikke på den grønne knappen med svart kryss for å zoome inn, på den grønne knappen med strek for å zoome ut, eller på de grønne pilene for å se tilstøtende kart.


METAR-TAF: